Time;durP1;ratioP1;P1;durP2;ratioP2;P2;SDS_P1;SDS_P2;PMS_P1;PMS_P2;Temp;Humidity;BMP_temperature;BMP_pressure;BME280_temperature;BME280_humidity;BME280_pressure;Samples;Min_cycle;Max_cycle;Signal;HPM_P1;HPM_P2
2020/12/04 00:00:12;;;;;;;38.81;18.69;;;;;;;2.40;72.59;100068.88;369861;107;1964957;-72
2020/12/04 00:01:18;;;;;;;41.85;18.56;;;;;;;2.39;72.68;100065.38;377061;106;1961939;-73
2020/12/04 00:02:24;;;;;;;42.23;18.67;;;;;;;2.41;72.68;100065.25;325234;105;2873970;-72
2020/12/04 00:03:29;;;;;;;41.67;20.00;;;;;;;2.43;72.59;100076.58;343721;105;1964925;-73
2020/12/04 00:04:35;;;;;;;45.98;18.92;;;;;;;2.41;72.64;100073.24;361638;106;1962008;-74
2020/12/04 00:05:40;;;;;;;45.29;19.75;;;;;;;2.43;72.73;100068.58;363619;109;1962055;-73
2020/12/04 00:06:46;;;;;;;44.88;19.77;;;;;;;2.46;72.74;100070.13;360255;110;1961685;-73
2020/12/04 00:07:52;;;;;;;43.32;19.17;;;;;;;2.48;72.49;100076.16;364061;109;1962002;-73
2020/12/04 00:09:00;;;;;;;38.42;18.51;;;;;;;2.44;72.56;100080.95;325938;107;2715936;-73
2020/12/04 00:10:06;;;;;;;45.83;19.95;;;;;;;2.42;72.76;100078.41;370791;107;1962029;-73
2020/12/04 00:11:12;;;;;;;39.27;17.87;;;;;;;2.34;72.79;100061.46;366433;108;1961947;-73
2020/12/04 00:12:18;;;;;;;42.13;18.38;;;;;;;2.38;72.78;100063.70;310340;109;2162122;-73
2020/12/04 00:13:23;;;;;;;45.96;19.85;;;;;;;2.52;72.63;100069.56;353763;108;1963022;-73
2020/12/04 00:14:29;;;;;;;42.13;17.58;;;;;;;2.53;72.43;100074.73;358421;110;1964931;-73
2020/12/04 00:15:34;;;;;;;43.03;17.65;;;;;;;2.53;72.35;100069.41;362308;111;1962108;-74
2020/12/04 00:16:40;;;;;;;40.42;18.18;;;;;;;2.51;72.42;100073.20;361355;110;1962006;-73
2020/12/04 00:17:46;;;;;;;48.18;17.58;;;;;;;2.49;72.51;100061.83;359807;112;1962033;-74
2020/12/04 00:18:52;;;;;;;46.28;18.88;;;;;;;2.47;72.54;100064.66;320611;108;2759994;-74
2020/12/04 00:19:57;;;;;;;39.81;17.58;;;;;;;2.39;72.71;100069.88;343318;107;1964005;-74
2020/12/04 00:21:02;;;;;;;40.72;18.24;;;;;;;2.35;72.94;100065.80;363263;109;1961990;-73
2020/12/04 00:22:08;;;;;;;48.79;19.97;;;;;;;2.32;73.19;100060.75;366836;108;1962016;-74
2020/12/04 00:23:13;;;;;;;38.67;18.23;;;;;;;2.29;73.35;100050.38;365559;108;1962007;-73
2020/12/04 00:24:19;;;;;;;40.70;18.79;;;;;;;2.30;73.29;100063.58;362595;109;1963983;-73
2020/12/04 00:25:25;;;;;;;41.96;18.37;;;;;;;2.31;73.39;100062.59;368819;107;1962936;-73
2020/12/04 00:26:38;;;;;;;43.03;19.27;;;;;;;2.33;73.22;100054.42;365307;108;1962955;-73
2020/12/04 00:27:44;;;;;;;46.40;19.84;;;;;;;2.33;73.26;100063.29;361916;110;1961972;-73
2020/12/04 00:28:51;;;;;;;42.93;18.07;;;;;;;2.35;73.30;100060.47;322469;106;2853049;-73
2020/12/04 00:29:56;;;;;;;42.90;18.83;;;;;;;2.38;73.28;100062.84;372227;106;1962017;-73
2020/12/04 00:31:02;;;;;;;45.80;20.41;;;;;;;2.41;73.14;100062.58;371520;108;1962003;-73
2020/12/04 00:32:07;;;;;;;40.01;19.06;;;;;;;2.41;73.14;100066.08;372635;108;1961985;-73
2020/12/04 00:33:12;;;;;;;41.26;19.69;;;;;;;2.44;73.12;100059.62;372121;106;1961928;-73
2020/12/04 00:34:17;;;;;;;43.09;18.60;;;;;;;2.45;73.17;100063.13;372419;108;1964018;-73
2020/12/04 00:35:23;;;;;;;40.28;18.22;;;;;;;2.49;73.08;100062.70;372160;108;1963963;-74
2020/12/04 00:36:29;;;;;;;48.58;18.80;;;;;;;2.46;72.96;100057.66;341416;106;2510997;-73
2020/12/04 00:37:35;;;;;;;39.87;16.86;;;;;;;2.46;73.06;100059.45;343065;106;1962004;-74
2020/12/04 00:38:40;;;;;;;39.62;17.46;;;;;;;2.46;73.18;100057.66;371784;108;1961989;-74
2020/12/04 00:39:45;;;;;;;43.72;19.48;;;;;;;2.48;73.09;100058.33;372392;106;1962090;-73
2020/12/04 00:40:51;;;;;;;40.09;17.87;;;;;;;2.50;73.10;100058.20;372470;106;1963032;-74
2020/12/04 00:41:59;;;;;;;40.57;18.86;;;;;;;2.52;72.78;100050.91;369016;109;1962040;-73
2020/12/04 00:43:04;;;;;;;39.98;17.00;;;;;;;2.54;72.73;100049.77;355090;113;1964049;-73
2020/12/04 00:44:10;;;;;;;38.77;17.73;;;;;;;2.57;72.63;100048.64;367792;108;1961984;-73
2020/12/04 00:45:17;;;;;;;34.79;16.19;;;;;;;2.58;72.44;100040.48;371587;108;1963011;-73
2020/12/04 00:46:23;;;;;;;38.51;16.54;;;;;;;2.57;72.42;100049.48;331314;106;2011976;-72
2020/12/04 00:47:29;;;;;;;40.89;18.33;;;;;;;2.54;72.46;100046.24;370712;108;1963860;-73
2020/12/04 00:48:34;;;;;;;43.43;18.23;;;;;;;2.53;72.48;100061.41;371035;108;1962008;-73
2020/12/04 00:49:40;;;;;;;40.66;16.88;;;;;;;2.52;72.59;100051.73;370091;108;1961955;-73
2020/12/04 00:50:46;;;;;;;44.21;19.40;;;;;;;2.52;72.62;100051.73;367876;109;1961995;-73
2020/12/04 00:51:52;;;;;;;36.67;16.86;;;;;;;2.50;72.60;100048.37;330787;108;2602019;-73
2020/12/04 00:52:58;;;;;;;41.09;17.33;;;;;;;2.52;72.46;100046.41;363887;109;1962285;-72
2020/12/04 00:54:03;;;;;;;40.13;16.76;;;;;;;2.51;72.47;100049.20;352688;112;1962967;-73
2020/12/04 00:55:09;;;;;;;39.20;16.68;;;;;;;2.45;72.70;100052.45;365983;108;1961967;-73
2020/12/04 00:56:17;;;;;;;40.19;17.64;;;;;;;2.40;72.93;100040.38;371627;106;1962004;-73
2020/12/04 00:57:22;;;;;;;38.07;16.58;;;;;;;2.40;73.02;100053.71;372447;106;1961901;-74
2020/12/04 00:58:28;;;;;;;40.23;19.21;;;;;;;2.39;73.06;100046.71;371940;106;1963947;-72
2020/12/04 00:59:34;;;;;;;42.71;17.71;;;;;;;2.32;73.29;100042.93;363169;110;1962066;-73
2020/12/04 01:00:41;;;;;;;44.69;17.07;;;;;;;2.37;73.15;100051.34;340361;106;2231968;-73
2020/12/04 01:01:46;;;;;;;37.77;17.56;;;;;;;2.37;73.10;100048.67;355390;105;1962064;-73
2020/12/04 01:02:51;;;;;;;37.43;16.83;;;;;;;2.38;73.02;100042.38;369193;104;1961018;-73
2020/12/04 01:03:56;;;;;;;39.71;17.24;;;;;;;2.37;73.18;100037.17;377830;105;1964024;-73
2020/12/04 01:05:02;;;;;;;41.25;18.18;;;;;;;2.37;73.29;100048.67;376849;105;1962017;-73
2020/12/04 01:06:13;;;;;;;37.94;17.66;;;;;;;2.41;73.15;100047.41;367587;108;1962020;-73
2020/12/04 01:07:19;;;;;;;37.82;16.79;;;;;;;2.38;73.20;100058.38;370640;106;1962045;-73
2020/12/04 01:08:25;;;;;;;36.22;17.57;;;;;;;2.37;73.28;100048.67;333574;105;2896959;-73
2020/12/04 01:09:34;;;;;;;39.14;15.61;;;;;;;2.41;73.12;100054.58;364376;105;1962036;-73
2020/12/04 01:10:41;;;;;;;38.89;17.77;;;;;;;2.42;73.09;100057.08;375881;105;1963015;-73
2020/12/04 01:11:46;;;;;;;33.77;17.27;;;;;;;2.37;73.28;100050.50;376479;106;1962072;-73
2020/12/04 01:12:52;;;;;;;34.48;17.76;;;;;;;2.36;73.36;100055.00;375981;105;1961935;-73
2020/12/04 01:13:59;;;;;;;36.70;16.93;;;;;;;2.36;73.53;100057.67;377008;106;1962853;-73
2020/12/04 01:15:04;;;;;;;39.52;17.66;;;;;;;2.40;73.48;100050.21;351253;105;1961970;-73
2020/12/04 01:16:10;;;;;;;35.96;16.86;;;;;;;2.39;73.23;100046.71;375709;106;1961943;-73
2020/12/04 01:17:16;;;;;;;40.31;17.16;;;;;;;2.36;73.53;100049.67;376075;105;1962049;-74
2020/12/04 01:18:21;;;;;;;36.70;16.43;;;;;;;2.39;73.44;100048.55;377597;106;1961965;-73
2020/12/04 01:19:27;;;;;;;35.87;15.94;;;;;;;2.42;73.40;100049.08;374852;105;1962044;-73
2020/12/04 01:20:34;;;;;;;35.34;15.69;;;;;;;2.43;73.22;100049.92;363296;106;1964904;-74
2020/12/04 01:21:39;;;;;;;33.16;15.48;;;;;;;2.43;73.29;100047.25;375803;107;1961970;-74
2020/12/04 01:22:45;;;;;;;33.95;15.46;;;;;;;2.42;73.39;100053.58;376277;106;1961950;-73
2020/12/04 01:23:53;;;;;;;36.91;16.56;;;;;;;2.42;73.36;100049.08;373906;105;1962006;-73
2020/12/04 01:24:58;;;;;;;37.99;16.51;;;;;;;2.38;73.44;100039.71;373831;106;1962939;-72
2020/12/04 01:26:04;;;;;;;35.54;16.51;;;;;;;2.41;73.36;100042.09;374979;105;1961952;-73
2020/12/04 01:27:09;;;;;;;40.59;15.15;;;;;;;2.42;73.18;100035.75;376035;106;1961901;-73
2020/12/04 01:28:15;;;;;;;35.12;15.88;;;;;;;2.40;73.11;100037.72;376609;105;1963994;-73
2020/12/04 01:29:21;;;;;;;31.95;16.44;;;;;;;2.39;73.29;100045.88;376355;105;1961957;-73
2020/12/04 01:30:28;;;;;;;34.90;16.26;;;;;;;2.39;73.39;100041.38;375708;106;1962005;-74
2020/12/04 01:31:33;;;;;;;37.27;16.96;;;;;;;2.41;73.54;100043.91;376516;104;1961969;-74
2020/12/04 01:32:38;;;;;;;36.45;16.14;;;;;;;2.44;73.27;100035.62;377950;105;1963083;-73
2020/12/04 01:33:43;;;;;;;36.92;15.28;;;;;;;2.44;73.36;100024.13;374083;106;1961927;-73
2020/12/04 01:34:48;;;;;;;31.05;15.74;;;;;;;2.39;73.40;100040.55;377814;105;1962007;-73
2020/12/04 01:35:55;;;;;;;37.04;16.27;;;;;;;2.39;73.60;100030.72;372688;105;1962924;-73
2020/12/04 01:37:01;;;;;;;32.45;15.79;;;;;;;2.43;73.55;100025.92;349464;107;2330021;-73
2020/12/04 01:38:06;;;;;;;31.56;15.61;;;;;;;2.45;73.42;100028.45;334132;108;1962015;-73
2020/12/04 01:39:11;;;;;;;41.84;15.72;;;;;;;2.48;73.34;100026.33;357544;110;1962007;-73
2020/12/04 01:40:20;;;;;;;33.27;15.93;;;;;;;2.51;73.01;100028.70;367407;107;1961945;-73
2020/12/04 01:41:25;;;;;;;37.95;16.65;;;;;;;2.51;73.03;100030.53;331826;110;1962043;-73
2020/12/04 01:42:31;;;;;;;38.16;14.78;;;;;;;2.51;73.08;100027.88;350775;111;1961943;-74
2020/12/04 01:43:36;;;;;;;34.98;16.04;;;;;;;2.52;73.02;100032.23;359191;110;1960825;-74
2020/12/04 01:44:41;;;;;;;35.08;15.73;;;;;;;2.51;73.02;100023.37;365820;109;1961961;-73
2020/12/04 01:45:46;;;;;;;37.28;16.59;;;;;;;2.53;72.90;100026.73;364832;109;1962023;-74
2020/12/04 01:46:54;;;;;;;34.46;16.76;;;;;;;2.51;73.07;100026.03;365964;108;1963941;-73
2020/12/04 01:47:59;;;;;;;32.09;15.16;;;;;;;2.52;73.07;100034.91;306937;107;2242429;-74
2020/12/04 01:49:04;;;;;;;37.96;15.72;;;;;;;2.53;73.05;100023.23;328879;110;1962013;-73
2020/12/04 01:50:10;;;;;;;35.58;16.06;;;;;;;2.55;72.91;100013.27;365288;107;1961969;-73
2020/12/04 01:51:16;;;;;;;35.91;15.84;;;;;;;2.55;72.92;100024.77;371179;107;1960962;-73
2020/12/04 01:52:25;;;;;;;33.01;15.13;;;;;;;2.50;73.03;100026.20;358380;110;1961953;-74
2020/12/04 01:53:30;;;;;;;34.86;14.99;;;;;;;2.50;73.04;100020.87;371312;107;1961980;-73
2020/12/04 01:54:36;;;;;;;33.91;15.33;;;;;;;2.48;73.25;100022.83;370042;107;1961971;-72
2020/12/04 01:55:42;;;;;;;37.06;14.93;;;;;;;2.48;73.24;100022.83;365912;108;1960796;-72
2020/12/04 01:56:51;;;;;;;36.52;15.78;;;;;;;2.52;73.16;100022.41;350729;107;2350992;-74
2020/12/04 01:58:00;;;;;;;39.00;15.54;;;;;;;2.57;72.85;100021.98;372362;107;1962936;-73
2020/12/04 01:59:07;;;;;;;35.11;14.44;;;;;;;2.52;72.83;100022.41;372527;107;1961993;-73
2020/12/04 02:00:14;;;;;;;33.10;14.17;;;;;;;2.49;72.96;100022.70;353348;105;1961965;-73
2020/12/04 02:01:30;;;;;;;34.37;15.36;;;;;;;2.49;72.99;100028.03;366977;108;1960971;-74
2020/12/04 02:02:44;;;;;;;32.08;15.58;;;;;;;2.46;73.13;100030.99;361756;109;1961988;-73
2020/12/04 02:03:49;;;;;;;35.41;16.10;;;;;;;2.45;73.32;100028.45;373221;106;1963954;-74
2020/12/04 02:04:54;;;;;;;34.35;15.29;;;;;;;2.40;73.48;100037.72;370098;109;1961932;-74
2020/12/04 02:06:04;;;;;;;35.13;14.30;;;;;;;2.39;73.43;100036.05;373730;106;1963007;-73
2020/12/04 02:07:17;;;;;;;32.91;15.57;;;;;;;2.42;73.50;100037.59;370991;108;1964911;-74
2020/12/04 02:08:31;;;;;;;30.46;14.24;;;;;;;2.46;73.55;100027.46;362686;108;1961947;-73
2020/12/04 02:09:41;;;;;;;36.59;16.06;;;;;;;2.48;73.32;100031.66;372496;108;1962050;-74
2020/12/04 02:11:09;;;;;;;35.43;15.53;;;;;;;2.52;73.10;100030.41;377054;106;1961928;-73
2020/12/04 02:12:16;;;;;;;37.65;15.30;;;;;;;2.48;73.25;100029.00;374501;107;1961952;-73
2020/12/04 02:13:22;;;;;;;36.05;15.57;;;;;;;2.50;73.07;100040.37;374332;106;1964021;-73
2020/12/04 02:14:30;;;;;;;36.52;15.87;;;;;;;2.50;73.11;100034.20;374538;107;1961095;-73
2020/12/04 02:15:37;;;;;;;35.25;14.91;;;;;;;2.49;73.13;100036.03;374308;107;1961980;-73
2020/12/04 02:17:06;;;;;;;32.77;15.65;;;;;;;2.49;73.21;100035.17;373794;106;1962033;-74
2020/12/04 02:18:15;;;;;;;35.53;14.66;;;;;;;2.44;73.37;100032.12;365566;108;1961943;-73
2020/12/04 02:19:24;;;;;;;31.62;14.44;;;;;;;2.45;73.25;100039.12;361921;108;1962010;-73
2020/12/04 02:20:34;;;;;;;36.42;14.91;;;;;;;2.45;73.29;100036.45;318076;108;2112268;-73
2020/12/04 02:21:41;;;;;;;39.48;15.28;;;;;;;2.50;73.19;100036.87;343042;110;2374941;-73
2020/12/04 02:22:47;;;;;;;38.91;16.29;;;;;;;2.48;73.23;100038.83;368304;108;1961980;-74
2020/12/04 02:23:53;;;;;;;35.62;15.87;;;;;;;2.50;73.16;100042.20;363782;109;1961990;-73
2020/12/04 02:24:59;;;;;;;34.41;15.38;;;;;;;2.44;73.31;100024.13;328282;108;2666977;-73
2020/12/04 02:26:07;;;;;;;33.48;15.07;;;;;;;2.38;73.56;100034.38;367561;108;1961971;-73
2020/12/04 02:27:15;;;;;;;30.92;16.01;;;;;;;2.38;73.67;100037.05;366471;108;1962089;-73
2020/12/04 02:28:35;;;;;;;37.76;15.98;;;;;;;2.37;73.52;100032.68;367944;108;1961988;-74
2020/12/04 02:29:41;;;;;;;35.70;14.77;;;;;;;2.34;73.70;100026.80;366945;108;1961960;-75
2020/12/04 02:30:47;;;;;;;35.11;15.00;;;;;;;2.35;73.77;100028.47;366089;108;1961961;-74
2020/12/04 02:31:53;;;;;;;33.49;14.50;;;;;;;2.37;73.68;100024.68;348219;108;2310013;-73
2020/12/04 02:32:58;;;;;;;31.70;14.05;;;;;;;2.42;73.54;100030.42;338866;108;1964991;-74
2020/12/04 02:34:03;;;;;;;34.66;15.82;;;;;;;2.44;73.61;100024.13;362632;106;1962199;-73
2020/12/04 02:35:08;;;;;;;32.43;13.85;;;;;;;2.45;73.56;100023.13;364464;107;1960765;-73
2020/12/04 02:36:14;;;;;;;37.56;14.86;;;;;;;2.49;73.46;100028.03;367869;108;1962057;-73
2020/12/04 02:37:21;;;;;;;32.07;14.69;;;;;;;2.51;73.39;100025.20;370251;108;1962022;-74
2020/12/04 02:38:27;;;;;;;37.85;15.51;;;;;;;2.51;73.39;100020.70;323307;108;2776011;-72
2020/12/04 02:39:34;;;;;;;40.93;14.61;;;;;;;2.50;73.43;100016.37;369830;108;1962004;-73
2020/12/04 02:40:41;;;;;;;32.63;14.47;;;;;;;2.38;73.75;100013.05;328278;108;2700007;-73
2020/12/04 02:41:46;;;;;;;33.22;14.74;;;;;;;2.42;73.67;100018.92;341762;108;1960870;-73
2020/12/04 02:42:54;;;;;;;41.63;16.24;;;;;;;2.46;73.61;100011.46;355331;106;1961993;-74
2020/12/04 02:44:03;;;;;;;36.36;14.66;;;;;;;2.40;73.66;100016.39;364510;110;1963943;-74
2020/12/04 02:45:09;;;;;;;34.94;15.11;;;;;;;2.45;73.62;100017.80;364037;110;1961980;-75
2020/12/04 02:46:16;;;;;;;34.96;16.37;;;;;;;2.42;73.82;100021.59;364886;110;1960970;-75
2020/12/04 02:47:28;;;;;;;34.67;15.00;;;;;;;2.44;73.70;100024.13;364821;110;1963052;-75
2020/12/04 02:48:34;;;;;;;37.64;16.06;;;;;;;2.48;73.70;100021.00;364058;110;1961961;-74
2020/12/04 02:49:40;;;;;;;40.44;14.95;;;;;;;2.47;73.67;100016.66;317838;110;2237908;-75
2020/12/04 02:50:46;;;;;;;36.32;15.67;;;;;;;2.48;73.69;100020.16;364698;110;1962011;-74
2020/12/04 02:51:53;;;;;;;35.51;16.09;;;;;;;2.49;73.67;100020.03;364499;110;1961977;-74
2020/12/04 02:52:58;;;;;;;34.62;14.60;;;;;;;2.51;73.52;100020.70;364205;110;1961964;-75
2020/12/04 02:54:04;;;;;;;35.05;15.11;;;;;;;2.51;73.52;100014.53;336112;110;2495999;-74
2020/12/04 02:55:09;;;;;;;36.11;15.34;;;;;;;2.51;73.65;100014.53;330883;110;1962100;-73
2020/12/04 02:56:17;;;;;;;32.10;14.09;;;;;;;2.51;73.61;100012.70;365306;110;1961078;-74
2020/12/04 02:57:23;;;;;;;31.48;14.50;;;;;;;2.45;73.69;100010.63;364114;110;1963940;-74
2020/12/04 02:58:30;;;;;;;35.19;14.91;;;;;;;2.48;73.71;100010.33;324019;110;2713013;-74
2020/12/04 02:59:37;;;;;;;32.82;14.34;;;;;;;2.52;73.56;100006.41;364327;110;1962005;-74
2020/12/04 03:00:44;;;;;;;33.08;14.57;;;;;;;2.52;73.53;100001.07;351227;110;1963839;-74
2020/12/04 03:01:49;;;;;;;33.08;14.21;;;;;;;2.49;73.56;100009.37;363980;110;1963068;-74
2020/12/04 03:02:54;;;;;;;35.62;13.10;;;;;;;2.49;73.50;100005.83;364634;110;1961966;-75
2020/12/04 03:04:00;;;;;;;39.37;14.37;;;;;;;2.40;73.78;100008.39;364595;110;1961904;-74
2020/12/04 03:05:05;;;;;;;35.94;15.28;;;;;;;2.40;73.93;99999.55;364335;110;1961989;-74
2020/12/04 03:06:12;;;;;;;36.83;15.42;;;;;;;2.38;73.98;99997.05;335738;110;2487672;-75
2020/12/04 03:07:18;;;;;;;41.22;12.99;;;;;;;2.38;74.05;99994.39;361269;110;1961950;-75
2020/12/04 03:08:25;;;;;;;34.46;13.26;;;;;;;2.39;73.94;99998.72;363262;110;1961945;-75
2020/12/04 03:09:32;;;;;;;36.31;14.29;;;;;;;2.37;73.97;100008.69;365339;110;1962020;-75
2020/12/04 03:10:39;;;;;;;34.05;14.08;;;;;;;2.27;74.42;100015.03;363842;110;1962057;-75
2020/12/04 03:11:44;;;;;;;31.71;14.72;;;;;;;2.30;74.46;100012.94;363678;110;1965061;-75
2020/12/04 03:12:50;;;;;;;33.51;14.04;;;;;;;2.34;74.54;100014.31;364445;110;1963908;-74
2020/12/04 03:13:56;;;;;;;31.65;14.51;;;;;;;2.37;74.45;100007.84;319326;110;2758035;-75
2020/12/04 03:15:03;;;;;;;33.23;14.96;;;;;;;2.41;74.34;100012.75;359969;110;1961942;-75
2020/12/04 03:16:10;;;;;;;34.33;13.60;;;;;;;2.43;74.12;100007.27;364303;110;1962036;-75
2020/12/04 03:17:16;;;;;;;35.57;14.08;;;;;;;2.43;74.19;100009.92;346831;110;2269973;-75
2020/12/04 03:18:22;;;;;;;31.84;13.86;;;;;;;2.43;74.22;100009.92;361132;110;1961978;-75
2020/12/04 03:19:27;;;;;;;33.34;14.58;;;;;;;2.40;74.33;100011.05;360837;110;1962007;-75
2020/12/04 03:20:35;;;;;;;34.22;13.89;;;;;;;2.46;74.26;100014.13;364385;110;1961982;-75
2020/12/04 03:21:41;;;;;;;32.16;13.67;;;;;;;2.50;73.96;100012.87;338976;110;1961981;-75
2020/12/04 03:22:46;;;;;;;38.99;14.16;;;;;;;2.48;73.95;100010.33;359246;110;1962031;-75
2020/12/04 03:23:51;;;;;;;37.03;13.64;;;;;;;2.50;73.95;100015.53;364228;110;1964005;-75
2020/12/04 03:24:56;;;;;;;36.14;15.13;;;;;;;2.51;73.88;100015.38;364064;110;1961923;-75
2020/12/04 03:26:02;;;;;;;32.14;15.16;;;;;;;2.46;73.95;100012.33;364702;110;1961994;-75
2020/12/04 03:27:08;;;;;;;34.53;13.62;;;;;;;2.44;74.11;100013.45;365008;110;1961952;-75
2020/12/04 03:28:14;;;;;;;30.98;14.72;;;;;;;2.48;74.04;100012.17;317122;112;2735969;-75
2020/12/04 03:29:20;;;;;;;32.31;14.18;;;;;;;2.49;73.92;100011.17;341097;110;1962893;-75
2020/12/04 03:30:26;;;;;;;33.88;14.18;;;;;;;2.50;73.95;100004.88;365290;108;1961970;-75
2020/12/04 03:31:32;;;;;;;33.97;14.78;;;;;;;2.53;73.88;100012.57;364073;109;1963019;-75
2020/12/04 03:32:37;;;;;;;35.01;14.29;;;;;;;2.49;74.03;100008.50;363900;108;1963234;-72
2020/12/04 03:33:43;;;;;;;33.28;14.05;;;;;;;2.48;74.03;100006.83;318595;110;2794066;-74
2020/12/04 03:34:49;;;;;;;32.18;13.12;;;;;;;2.51;74.04;100006.53;331735;109;1961932;-74
2020/12/04 03:35:54;;;;;;;37.65;15.32;;;;;;;2.51;74.04;100006.53;359559;110;1961973;-74
2020/12/04 03:37:00;;;;;;;38.07;14.91;;;;;;;2.50;74.15;100005.70;365882;110;1961039;-74
2020/12/04 03:38:05;;;;;;;35.02;14.34;;;;;;;2.53;74.16;100012.57;365287;110;1961090;-73
2020/12/04 03:39:10;;;;;;;34.13;13.23;;;;;;;2.57;74.04;100006.81;364888;110;1961935;-73
2020/12/04 03:40:16;;;;;;;39.80;13.57;;;;;;;2.61;73.82;100013.52;364433;110;1960757;-73
2020/12/04 03:41:22;;;;;;;33.35;14.53;;;;;;;2.65;73.73;100011.42;331880;110;2559777;-74
2020/12/04 03:42:27;;;;;;;32.71;14.93;;;;;;;2.67;73.58;100008.58;338592;110;1963983;-74
2020/12/04 03:43:39;;;;;;;38.27;15.38;;;;;;;2.64;73.56;100013.22;363127;109;1962005;-74
2020/12/04 03:44:41;;;;;;;29.52;14.87;;;;;;;2.61;73.78;100004.68;363107;110;1961954;-74
2020/12/04 03:45:57;;;;;;;33.62;15.06;;;;;;;2.54;73.92;100007.11;326348;110;2635012;-74
2020/12/04 03:47:02;;;;;;;35.94;14.18;;;;;;;2.54;73.98;100009.77;364077;109;1962009;-73
2020/12/04 03:48:07;;;;;;;37.56;15.18;;;;;;;2.60;73.89;100003.02;368303;108;1962047;-74
2020/12/04 03:49:15;;;;;;;33.05;14.75;;;;;;;2.61;73.78;100010.84;371929;106;1964954;-74
2020/12/04 03:50:21;;;;;;;35.42;16.10;;;;;;;2.57;74.00;100005.97;332054;106;2659008;-74
2020/12/04 03:51:26;;;;;;;37.08;14.80;;;;;;;2.60;73.73;100005.67;336665;110;1965030;-74
2020/12/04 03:52:31;;;;;;;32.58;14.36;;;;;;;2.56;73.91;100004.27;353802;108;1961977;-73
2020/12/04 03:53:37;;;;;;;36.74;13.87;;;;;;;2.57;74.00;100016.64;361699;110;1961977;-74
2020/12/04 03:54:42;;;;;;;32.05;13.33;;;;;;;2.58;73.99;100002.31;359460;111;1961969;-73
2020/12/04 03:55:48;;;;;;;36.06;14.67;;;;;;;2.62;73.83;99995.71;365956;108;1961870;-73
2020/12/04 03:56:54;;;;;;;32.76;14.76;;;;;;;2.61;73.80;100007.34;365414;108;1961957;-74
2020/12/04 03:58:08;;;;;;;31.59;13.94;;;;;;;2.58;73.88;100005.81;318428;108;2821018;-74
2020/12/04 03:59:15;;;;;;;32.07;13.27;;;;;;;2.52;74.17;100006.41;313271;111;2800004;-74
2020/12/04 04:00:22;;;;;;;37.30;14.68;;;;;;;2.55;74.20;100007.94;341314;111;1962007;-74
2020/12/04 04:01:27;;;;;;;31.04;14.01;;;;;;;2.56;74.26;100007.78;355884;113;1961967;-74
2020/12/04 04:02:33;;;;;;;30.19;13.04;;;;;;;2.58;74.26;100004.98;356645;113;1961945;-73
2020/12/04 04:03:39;;;;;;;38.72;14.30;;;;;;;2.60;74.02;100001.17;308408;111;2870016;-73
2020/12/04 04:04:45;;;;;;;39.01;13.60;;;;;;;2.58;74.23;100007.64;345216;113;1962946;-73
2020/12/04 04:05:50;;;;;;;33.34;13.81;;;;;;;2.59;73.98;100007.52;355265;111;1961999;-73
2020/12/04 04:06:55;;;;;;;35.94;14.49;;;;;;;2.57;74.13;100008.64;354619;113;1962056;-73
2020/12/04 04:08:00;;;;;;;32.84;14.89;;;;;;;2.58;74.25;100008.48;355321;113;1962039;-73
2020/12/04 04:09:06;;;;;;;34.71;14.72;;;;;;;2.60;74.33;100011.02;355975;111;1963999;-73
2020/12/04 04:10:13;;;;;;;29.33;14.55;;;;;;;2.63;74.07;100022.22;336321;113;2326951;-73
2020/12/04 04:11:19;;;;;;;32.12;13.94;;;;;;;2.60;74.15;100011.02;328175;113;1961953;-73
2020/12/04 04:12:24;;;;;;;33.02;13.23;;;;;;;2.59;74.28;100014.64;354353;114;1964022;-74
2020/12/04 04:13:29;;;;;;;34.06;14.24;;;;;;;2.58;74.37;100015.64;352718;114;1964934;-73
2020/12/04 04:14:35;;;;;;;32.46;13.67;;;;;;;2.60;74.34;100008.34;348742;113;1963053;-74
2020/12/04 04:15:40;;;;;;;33.72;15.82;;;;;;;2.63;74.17;100016.05;350306;115;1961969;-74
2020/12/04 04:16:56;;;;;;;32.08;14.23;;;;;;;2.65;74.15;100014.08;337464;114;2228403;-74
2020/12/04 04:18:02;;;;;;;37.42;14.84;;;;;;;2.64;74.19;100012.38;330826;105;2694885;-75
2020/12/04 04:19:07;;;;;;;26.11;12.19;;;;;;;2.64;74.19;100023.05;341746;107;1962041;-74
2020/12/04 04:20:13;;;;;;;33.39;14.32;;;;;;;2.62;74.13;100014.38;370416;107;1965007;-74
2020/12/04 04:21:19;;;;;;;29.54;13.33;;;;;;;2.64;74.23;100018.55;365901;109;1961949;-73
2020/12/04 04:22:24;;;;;;;31.73;14.04;;;;;;;2.62;74.27;100019.72;363340;109;1961941;-74
2020/12/04 04:23:30;;;;;;;33.49;14.44;;;;;;;2.63;74.29;100016.05;365537;109;1962040;-73
2020/12/04 04:24:36;;;;;;;31.54;13.45;;;;;;;2.64;74.34;100015.88;316986;109;2815946;-73
2020/12/04 04:25:42;;;;;;;31.14;13.74;;;;;;;2.67;74.22;100019.25;337315;109;1962028;-72
2020/12/04 04:26:50;;;;;;;30.92;14.66;;;;;;;2.66;74.21;100015.75;364961;109;1964003;-74
2020/12/04 04:27:56;;;;;;;31.12;15.38;;;;;;;2.67;74.21;100017.42;337658;109;2406992;-74
2020/12/04 04:29:02;;;;;;;28.60;15.46;;;;;;;2.65;74.16;100014.08;360444;109;1964003;-73
2020/12/04 04:30:08;;;;;;;31.81;14.11;;;;;;;2.68;74.22;100010.28;364354;109;1962086;-73
2020/12/04 04:31:14;;;;;;;30.52;14.04;;;;;;;2.65;74.26;100008.75;365893;109;1961871;-74
2020/12/04 04:32:20;;;;;;;28.71;14.31;;;;;;;2.64;74.50;100013.22;320651;109;2745941;-73
2020/12/04 04:33:25;;;;;;;32.26;13.76;;;;;;;2.64;74.42;100013.22;341650;111;1962052;-73
2020/12/04 04:34:32;;;;;;;30.38;14.23;;;;;;;2.63;74.31;100008.88;359244;111;1962006;-74
2020/12/04 04:35:38;;;;;;;30.63;13.70;;;;;;;2.63;74.40;100014.22;364278;109;1961983;-74
2020/12/04 04:36:45;;;;;;;29.11;14.46;;;;;;;2.62;74.55;100006.37;333590;109;1962008;-73
2020/12/04 04:37:50;;;;;;;32.00;14.46;;;;;;;2.63;74.66;100010.72;365844;109;1961982;-72
2020/12/04 04:38:55;;;;;;;30.19;13.14;;;;;;;2.70;74.33;100011.82;365444;109;1961912;-73
2020/12/04 04:40:01;;;;;;;34.51;14.98;;;;;;;2.69;74.23;100006.61;366856;109;1962959;-74
2020/12/04 04:41:07;;;;;;;30.82;14.41;;;;;;;2.71;74.28;100012.66;365631;109;1962009;-73
2020/12/04 04:42:12;;;;;;;30.81;14.13;;;;;;;2.69;74.44;100020.78;363421;109;1961952;-73
2020/12/04 04:43:18;;;;;;;31.98;13.58;;;;;;;2.74;74.27;100013.19;348689;109;2229006;-74
2020/12/04 04:44:24;;;;;;;33.67;14.18;;;;;;;2.75;74.13;100014.02;344389;109;1963968;-74
2020/12/04 04:45:30;;;;;;;36.38;15.47;;;;;;;2.73;74.18;100016.02;363138;109;1961954;-74
2020/12/04 04:47:03;;;;;;;31.38;13.17;;;;;;;2.74;74.20;100012.35;329306;109;2607907;-74
2020/12/04 04:48:22;;;;;;;32.39;13.04;;;;;;;2.77;74.04;100012.05;364307;109;1961978;-74
2020/12/04 04:49:29;;;;;;;30.08;13.11;;;;;;;2.71;74.25;100013.48;328199;109;2585968;-74
2020/12/04 04:50:35;;;;;;;30.19;14.42;;;;;;;2.72;74.42;100015.16;364305;109;1962099;-74
2020/12/04 04:51:42;;;;;;;30.52;15.72;;;;;;;2.75;74.40;100017.55;364873;109;1963041;-74
2020/12/04 04:52:47;;;;;;;32.54;14.53;;;;;;;2.75;74.32;100016.69;342173;109;2365003;-73
2020/12/04 04:53:57;;;;;;;34.39;14.85;;;;;;;2.79;74.14;100013.59;353324;109;1961880;-74
2020/12/04 04:55:03;;;;;;;30.13;14.33;;;;;;;2.74;74.12;100015.86;354953;111;1961901;-73
2020/12/04 04:56:09;;;;;;;27.03;13.24;;;;;;;2.74;74.33;100023.86;352486;113;1964025;-73
2020/12/04 04:57:21;;;;;;;30.19;14.51;;;;;;;2.70;74.54;100013.62;360721;111;1961975;-73
2020/12/04 04:58:31;;;;;;;28.76;14.03;;;;;;;2.69;74.50;100014.62;359451;111;1961917;-74
2020/12/04 04:59:36;;;;;;;35.22;14.07;;;;;;;2.72;74.63;100007.16;299846;111;2223581;-74